sensor_id;sensor_type;location;lat;lon;timestamp;temperature;humidity
35129;DHT22;21301;43.626;10.580;2023-04-16T00:00:25;11.90;99.90
35129;DHT22;21301;43.626;10.580;2023-04-16T00:02:50;11.90;99.90
35129;DHT22;21301;43.626;10.580;2023-04-16T00:05:16;11.90;99.90
35129;DHT22;21301;43.626;10.580;2023-04-16T00:07:42;12.00;99.90
35129;DHT22;21301;43.626;10.580;2023-04-16T00:10:08;12.10;99.90
35129;DHT22;21301;43.626;10.580;2023-04-16T00:12:34;12.10;99.90
35129;DHT22;21301;43.626;10.580;2023-04-16T00:15:01;12.30;99.90
35129;DHT22;21301;43.626;10.580;2023-04-16T00:17:27;12.30;99.90
35129;DHT22;21301;43.626;10.580;2023-04-16T00:19:52;12.20;99.90
35129;DHT22;21301;43.626;10.580;2023-04-16T00:22:18;12.30;99.90
35129;DHT22;21301;43.626;10.580;2023-04-16T00:24:44;12.30;99.90
35129;DHT22;21301;43.626;10.580;2023-04-16T00:27:10;12.30;99.90
35129;DHT22;21301;43.626;10.580;2023-04-16T00:29:36;12.30;99.90
35129;DHT22;21301;43.626;10.580;2023-04-16T00:32:01;12.20;99.90
35129;DHT22;21301;43.626;10.580;2023-04-16T00:34:27;12.10;99.90
35129;DHT22;21301;43.626;10.580;2023-04-16T00:36:53;12.20;99.90
35129;DHT22;21301;43.626;10.580;2023-04-16T00:39:19;12.20;99.90
35129;DHT22;21301;43.626;10.580;2023-04-16T00:41:45;12.20;99.90
35129;DHT22;21301;43.626;10.580;2023-04-16T00:44:11;12.30;99.90
35129;DHT22;21301;43.626;10.580;2023-04-16T00:46:37;12.30;99.90
35129;DHT22;21301;43.626;10.580;2023-04-16T00:49:03;12.20;99.90
35129;DHT22;21301;43.626;10.580;2023-04-16T00:51:29;12.20;99.90
35129;DHT22;21301;43.626;10.580;2023-04-16T00:53:56;12.10;99.90
35129;DHT22;21301;43.626;10.580;2023-04-16T00:56:23;12.00;99.90
35129;DHT22;21301;43.626;10.580;2023-04-16T00:58:49;11.90;99.90
35129;DHT22;21301;43.626;10.580;2023-04-16T01:01:15;11.50;99.90
35129;DHT22;21301;43.626;10.580;2023-04-16T01:03:46;11.40;99.90
35129;DHT22;21301;43.626;10.580;2023-04-16T01:06:12;11.30;99.90
35129;DHT22;21301;43.626;10.580;2023-04-16T01:08:38;11.20;99.90
35129;DHT22;21301;43.626;10.580;2023-04-16T01:11:05;11.40;99.90
35129;DHT22;21301;43.626;10.580;2023-04-16T01:13:31;11.20;99.90
35129;DHT22;21301;43.626;10.580;2023-04-16T01:15:58;11.30;99.90
35129;DHT22;21301;43.626;10.580;2023-04-16T01:18:25;11.30;99.90
35129;DHT22;21301;43.626;10.580;2023-04-16T01:20:51;11.40;99.90
35129;DHT22;21301;43.626;10.580;2023-04-16T01:23:18;11.60;99.90
35129;DHT22;21301;43.626;10.580;2023-04-16T01:25:45;11.70;99.90
35129;DHT22;21301;43.626;10.580;2023-04-16T01:28:11;11.90;99.90
35129;DHT22;21301;43.626;10.580;2023-04-16T01:30:37;11.90;99.90
35129;DHT22;21301;43.626;10.580;2023-04-16T01:33:14;11.90;99.90
35129;DHT22;21301;43.626;10.580;2023-04-16T01:35:41;11.90;99.90
35129;DHT22;21301;43.626;10.580;2023-04-16T01:38:07;11.70;99.90
35129;DHT22;21301;43.626;10.580;2023-04-16T01:40:34;11.40;99.90
35129;DHT22;21301;43.626;10.580;2023-04-16T01:43:01;11.60;99.90
35129;DHT22;21301;43.626;10.580;2023-04-16T01:45:27;11.60;99.90
35129;DHT22;21301;43.626;10.580;2023-04-16T01:47:53;11.60;99.90
35129;DHT22;21301;43.626;10.580;2023-04-16T01:50:20;11.40;99.90
35129;DHT22;21301;43.626;10.580;2023-04-16T01:52:46;11.50;99.90
35129;DHT22;21301;43.626;10.580;2023-04-16T01:55:12;11.60;99.90
35129;DHT22;21301;43.626;10.580;2023-04-16T01:57:38;11.60;99.90
35129;DHT22;21301;43.626;10.580;2023-04-16T02:00:04;11.70;99.90
35129;DHT22;21301;43.626;10.580;2023-04-16T02:02:33;11.70;99.90
35129;DHT22;21301;43.626;10.580;2023-04-16T02:04:58;11.60;99.90
35129;DHT22;21301;43.626;10.580;2023-04-16T02:07:24;11.60;99.90
35129;DHT22;21301;43.626;10.580;2023-04-16T02:09:50;11.60;99.90
35129;DHT22;21301;43.626;10.580;2023-04-16T02:12:16;11.80;99.90
35129;DHT22;21301;43.626;10.580;2023-04-16T02:14:42;11.60;99.90
35129;DHT22;21301;43.626;10.580;2023-04-16T02:17:08;11.60;99.90
35129;DHT22;21301;43.626;10.580;2023-04-16T02:19:36;11.80;99.90
35129;DHT22;21301;43.626;10.580;2023-04-16T02:22:03;11.40;99.90
35129;DHT22;21301;43.626;10.580;2023-04-16T02:24:29;11.60;99.90
35129;DHT22;21301;43.626;10.580;2023-04-16T02:26:56;11.70;99.90
35129;DHT22;21301;43.626;10.580;2023-04-16T02:29:22;11.40;99.90
35129;DHT22;21301;43.626;10.580;2023-04-16T02:31:58;11.40;99.90
35129;DHT22;21301;43.626;10.580;2023-04-16T02:34:24;11.40;99.90
35129;DHT22;21301;43.626;10.580;2023-04-16T02:36:50;11.40;99.90
35129;DHT22;21301;43.626;10.580;2023-04-16T02:39:16;11.50;99.90
35129;DHT22;21301;43.626;10.580;2023-04-16T02:41:42;11.40;99.90
35129;DHT22;21301;43.626;10.580;2023-04-16T02:44:08;11.60;99.90
35129;DHT22;21301;43.626;10.580;2023-04-16T02:46:34;11.60;99.90
35129;DHT22;21301;43.626;10.580;2023-04-16T02:49:00;11.60;99.90
35129;DHT22;21301;43.626;10.580;2023-04-16T02:51:25;11.60;99.90
35129;DHT22;21301;43.626;10.580;2023-04-16T02:53:52;11.80;99.90
35129;DHT22;21301;43.626;10.580;2023-04-16T02:56:18;11.90;99.90
35129;DHT22;21301;43.626;10.580;2023-04-16T02:58:44;11.90;99.90
35129;DHT22;21301;43.626;10.580;2023-04-16T03:01:10;11.90;99.90
35129;DHT22;21301;43.626;10.580;2023-04-16T03:03:35;12.00;99.90
35129;DHT22;21301;43.626;10.580;2023-04-16T03:06:01;12.00;99.90
35129;DHT22;21301;43.626;10.580;2023-04-16T03:08:27;12.00;99.90
35129;DHT22;21301;43.626;10.580;2023-04-16T03:10:53;11.80;99.90
35129;DHT22;21301;43.626;10.580;2023-04-16T03:13:19;11.70;99.90
35129;DHT22;21301;43.626;10.580;2023-04-16T03:15:48;11.40;99.90
35129;DHT22;21301;43.626;10.580;2023-04-16T03:18:14;10.90;99.90
35129;DHT22;21301;43.626;10.580;2023-04-16T03:20:41;10.80;99.90
35129;DHT22;21301;43.626;10.580;2023-04-16T03:23:06;10.70;99.90
35129;DHT22;21301;43.626;10.580;2023-04-16T03:25:32;10.70;99.90
35129;DHT22;21301;43.626;10.580;2023-04-16T03:27:58;10.70;99.90
35129;DHT22;21301;43.626;10.580;2023-04-16T03:30:24;10.80;99.90
35129;DHT22;21301;43.626;10.580;2023-04-16T03:32:50;10.90;99.90
35129;DHT22;21301;43.626;10.580;2023-04-16T03:35:16;10.90;99.90
35129;DHT22;21301;43.626;10.580;2023-04-16T03:37:43;10.70;99.90
35129;DHT22;21301;43.626;10.580;2023-04-16T03:40:09;10.60;99.90
35129;DHT22;21301;43.626;10.580;2023-04-16T03:42:34;10.50;99.90
35129;DHT22;21301;43.626;10.580;2023-04-16T03:45:01;10.40;99.90
35129;DHT22;21301;43.626;10.580;2023-04-16T03:47:27;10.30;99.90
35129;DHT22;21301;43.626;10.580;2023-04-16T03:49:57;10.20;99.90
35129;DHT22;21301;43.626;10.580;2023-04-16T03:52:23;10.10;99.90
35129;DHT22;21301;43.626;10.580;2023-04-16T03:54:49;10.10;99.90
35129;DHT22;21301;43.626;10.580;2023-04-16T03:57:26;10.10;99.90
35129;DHT22;21301;43.626;10.580;2023-04-16T03:59:56;10.20;99.90
35129;DHT22;21301;43.626;10.580;2023-04-16T04:02:23;10.10;99.90
35129;DHT22;21301;43.626;10.580;2023-04-16T04:04:48;9.90;99.90
35129;DHT22;21301;43.626;10.580;2023-04-16T04:07:15;10.00;99.90
35129;DHT22;21301;43.626;10.580;2023-04-16T04:09:41;10.10;99.90
35129;DHT22;21301;43.626;10.580;2023-04-16T04:12:07;10.20;99.90
35129;DHT22;21301;43.626;10.580;2023-04-16T04:14:34;10.30;99.90
35129;DHT22;21301;43.626;10.580;2023-04-16T04:17:05;10.20;99.90
35129;DHT22;21301;43.626;10.580;2023-04-16T04:19:31;10.20;99.90
35129;DHT22;21301;43.626;10.580;2023-04-16T04:21:57;10.10;99.90
35129;DHT22;21301;43.626;10.580;2023-04-16T04:24:23;9.70;99.90
35129;DHT22;21301;43.626;10.580;2023-04-16T04:26:49;9.50;99.90
35129;DHT22;21301;43.626;10.580;2023-04-16T04:29:15;9.10;99.90
35129;DHT22;21301;43.626;10.580;2023-04-16T04:31:41;9.30;99.90
35129;DHT22;21301;43.626;10.580;2023-04-16T04:34:07;9.50;99.90
35129;DHT22;21301;43.626;10.580;2023-04-16T04:36:33;9.60;99.90
35129;DHT22;21301;43.626;10.580;2023-04-16T04:39:00;9.80;99.90
35129;DHT22;21301;43.626;10.580;2023-04-16T04:41:26;10.10;99.90
35129;DHT22;21301;43.626;10.580;2023-04-16T04:43:52;10.10;99.90
35129;DHT22;21301;43.626;10.580;2023-04-16T04:46:18;9.90;99.90
35129;DHT22;21301;43.626;10.580;2023-04-16T04:48:44;10.10;99.90
35129;DHT22;21301;43.626;10.580;2023-04-16T04:51:09;10.20;99.90
35129;DHT22;21301;43.626;10.580;2023-04-16T04:53:35;10.50;99.90
35129;DHT22;21301;43.626;10.580;2023-04-16T04:56:01;10.70;99.90
35129;DHT22;21301;43.626;10.580;2023-04-16T04:58:27;10.80;99.90
35129;DHT22;21301;43.626;10.580;2023-04-16T05:00:53;11.00;99.90
35129;DHT22;21301;43.626;10.580;2023-04-16T05:03:19;11.50;99.90
35129;DHT22;21301;43.626;10.580;2023-04-16T05:05:46;12.20;99.90
35129;DHT22;21301;43.626;10.580;2023-04-16T05:08:12;12.70;99.90
35129;DHT22;21301;43.626;10.580;2023-04-16T05:10:38;13.20;99.90
35129;DHT22;21301;43.626;10.580;2023-04-16T05:13:04;13.20;99.90
35129;DHT22;21301;43.626;10.580;2023-04-16T05:15:29;13.50;99.90
35129;DHT22;21301;43.626;10.580;2023-04-16T05:17:55;14.00;99.90
35129;DHT22;21301;43.626;10.580;2023-04-16T05:20:22;14.60;99.90
35129;DHT22;21301;43.626;10.580;2023-04-16T05:22:50;15.30;99.90
35129;DHT22;21301;43.626;10.580;2023-04-16T05:25:16;15.70;99.90
35129;DHT22;21301;43.626;10.580;2023-04-16T05:27:42;16.20;99.90
35129;DHT22;21301;43.626;10.580;2023-04-16T05:30:09;16.90;99.90
35129;DHT22;21301;43.626;10.580;2023-04-16T05:32:35;17.50;99.90
35129;DHT22;21301;43.626;10.580;2023-04-16T05:35:01;17.80;99.90
35129;DHT22;21301;43.626;10.580;2023-04-16T05:37:27;18.10;99.90
35129;DHT22;21301;43.626;10.580;2023-04-16T05:39:52;18.40;99.90
35129;DHT22;21301;43.626;10.580;2023-04-16T05:42:18;19.10;99.90
35129;DHT22;21301;43.626;10.580;2023-04-16T05:44:44;19.40;99.90
35129;DHT22;21301;43.626;10.580;2023-04-16T05:47:10;19.40;99.90
35129;DHT22;21301;43.626;10.580;2023-04-16T05:49:36;19.40;99.90
35129;DHT22;21301;43.626;10.580;2023-04-16T05:52:03;19.40;99.90
35129;DHT22;21301;43.626;10.580;2023-04-16T05:54:29;19.40;99.90
35129;DHT22;21301;43.626;10.580;2023-04-16T05:56:55;18.60;99.90
35129;DHT22;21301;43.626;10.580;2023-04-16T05:59:21;18.50;99.90
35129;DHT22;21301;43.626;10.580;2023-04-16T06:01:46;18.60;99.90
35129;DHT22;21301;43.626;10.580;2023-04-16T06:04:12;18.80;99.90
35129;DHT22;21301;43.626;10.580;2023-04-16T06:06:38;19.00;99.90
35129;DHT22;21301;43.626;10.580;2023-04-16T06:09:04;18.90;99.60
35129;DHT22;21301;43.626;10.580;2023-04-16T06:11:30;19.20;99.90
35129;DHT22;21301;43.626;10.580;2023-04-16T06:13:56;18.70;99.30
35129;DHT22;21301;43.626;10.580;2023-04-16T06:16:22;18.90;99.60
35129;DHT22;21301;43.626;10.580;2023-04-16T06:18:47;18.80;98.70
35129;DHT22;21301;43.626;10.580;2023-04-16T06:21:13;18.70;99.40
35129;DHT22;21301;43.626;10.580;2023-04-16T06:23:40;19.20;99.60
35129;DHT22;21301;43.626;10.580;2023-04-16T06:26:06;19.10;99.20
35129;DHT22;21301;43.626;10.580;2023-04-16T06:28:31;19.00;99.10
35129;DHT22;21301;43.626;10.580;2023-04-16T06:30:58;19.10;99.20
35129;DHT22;21301;43.626;10.580;2023-04-16T06:33:24;18.50;98.80
35129;DHT22;21301;43.626;10.580;2023-04-16T06:35:50;18.70;98.80
35129;DHT22;21301;43.626;10.580;2023-04-16T06:38:17;19.20;98.70
35129;DHT22;21301;43.626;10.580;2023-04-16T06:40:42;19.60;98.30
35129;DHT22;21301;43.626;10.580;2023-04-16T06:43:08;19.30;98.10
35129;DHT22;21301;43.626;10.580;2023-04-16T06:45:34;19.20;98.20
35129;DHT22;21301;43.626;10.580;2023-04-16T06:48:00;18.90;98.10
35129;DHT22;21301;43.626;10.580;2023-04-16T06:50:27;18.70;98.10
35129;DHT22;21301;43.626;10.580;2023-04-16T06:52:54;18.50;97.90
35129;DHT22;21301;43.626;10.580;2023-04-16T06:55:20;18.80;98.00
35129;DHT22;21301;43.626;10.580;2023-04-16T06:57:46;18.80;97.40
35129;DHT22;21301;43.626;10.580;2023-04-16T07:00:16;18.80;97.70
35129;DHT22;21301;43.626;10.580;2023-04-16T07:02:42;19.00;97.60
35129;DHT22;21301;43.626;10.580;2023-04-16T07:05:08;19.30;97.40
35129;DHT22;21301;43.626;10.580;2023-04-16T07:07:34;19.50;97.10
35129;DHT22;21301;43.626;10.580;2023-04-16T07:10:00;19.70;97.10
35129;DHT22;21301;43.626;10.580;2023-04-16T07:12:26;19.80;96.90
35129;DHT22;21301;43.626;10.580;2023-04-16T07:14:52;19.80;96.70
35129;DHT22;21301;43.626;10.580;2023-04-16T07:17:18;19.60;96.70
35129;DHT22;21301;43.626;10.580;2023-04-16T07:19:45;19.50;96.70
35129;DHT22;21301;43.626;10.580;2023-04-16T07:22:11;19.20;96.40
35129;DHT22;21301;43.626;10.580;2023-04-16T07:24:37;19.10;96.50
35129;DHT22;21301;43.626;10.580;2023-04-16T07:27:03;19.30;96.70
35129;DHT22;21301;43.626;10.580;2023-04-16T07:29:29;19.70;96.50
35129;DHT22;21301;43.626;10.580;2023-04-16T07:31:56;19.90;96.20
35129;DHT22;21301;43.626;10.580;2023-04-16T07:34:22;19.50;96.00
35129;DHT22;21301;43.626;10.580;2023-04-16T07:36:47;19.50;96.00
35129;DHT22;21301;43.626;10.580;2023-04-16T07:39:13;19.20;95.60
35129;DHT22;21301;43.626;10.580;2023-04-16T07:41:39;19.70;95.90
35129;DHT22;21301;43.626;10.580;2023-04-16T07:44:06;19.70;95.60
35129;DHT22;21301;43.626;10.580;2023-04-16T07:46:32;19.50;95.40
35129;DHT22;21301;43.626;10.580;2023-04-16T07:48:58;19.20;95.50
35129;DHT22;21301;43.626;10.580;2023-04-16T07:51:23;19.50;95.70
35129;DHT22;21301;43.626;10.580;2023-04-16T07:53:49;19.80;96.20
35129;DHT22;21301;43.626;10.580;2023-04-16T07:56:15;20.00;96.20
35129;DHT22;21301;43.626;10.580;2023-04-16T07:58:41;19.70;95.80
35129;DHT22;21301;43.626;10.580;2023-04-16T08:01:07;20.10;96.50
35129;DHT22;21301;43.626;10.580;2023-04-16T08:03:32;20.40;96.00
35129;DHT22;21301;43.626;10.580;2023-04-16T08:05:58;20.40;95.60
35129;DHT22;21301;43.626;10.580;2023-04-16T08:08:27;20.20;95.10
35129;DHT22;21301;43.626;10.580;2023-04-16T08:10:54;19.70;93.90
35129;DHT22;21301;43.626;10.580;2023-04-16T08:13:23;19.40;93.00
35129;DHT22;21301;43.626;10.580;2023-04-16T08:15:49;19.50;93.10
35129;DHT22;21301;43.626;10.580;2023-04-16T08:18:14;19.10;93.00
35129;DHT22;21301;43.626;10.580;2023-04-16T08:20:41;19.20;93.10
35129;DHT22;21301;43.626;10.580;2023-04-16T08:23:07;19.10;93.00
35129;DHT22;21301;43.626;10.580;2023-04-16T08:25:32;19.60;93.70
35129;DHT22;21301;43.626;10.580;2023-04-16T08:27:58;20.10;93.90
35129;DHT22;21301;43.626;10.580;2023-04-16T08:30:24;20.10;93.10
35129;DHT22;21301;43.626;10.580;2023-04-16T08:32:50;20.00;92.70
35129;DHT22;21301;43.626;10.580;2023-04-16T08:35:16;20.10;92.60
35129;DHT22;21301;43.626;10.580;2023-04-16T08:37:41;19.80;92.00
35129;DHT22;21301;43.626;10.580;2023-04-16T08:40:08;19.60;91.40
35129;DHT22;21301;43.626;10.580;2023-04-16T08:42:59;19.60;91.40
35129;DHT22;21301;43.626;10.580;2023-04-16T08:45:25;19.50;91.10
35129;DHT22;21301;43.626;10.580;2023-04-16T08:47:52;19.70;91.20
35129;DHT22;21301;43.626;10.580;2023-04-16T08:50:25;19.30;91.00
35129;DHT22;21301;43.626;10.580;2023-04-16T08:52:55;19.50;90.90
35129;DHT22;21301;43.626;10.580;2023-04-16T08:55:34;19.40;91.00
35129;DHT22;21301;43.626;10.580;2023-04-16T08:58:07;19.40;91.20
35129;DHT22;21301;43.626;10.580;2023-04-16T09:00:33;19.30;90.80
35129;DHT22;21301;43.626;10.580;2023-04-16T09:03:00;19.80;91.30
35129;DHT22;21301;43.626;10.580;2023-04-16T09:05:28;19.90;91.00
35129;DHT22;21301;43.626;10.580;2023-04-16T09:07:54;19.70;90.30
35129;DHT22;21301;43.626;10.580;2023-04-16T09:10:20;19.80;90.50
35129;DHT22;21301;43.626;10.580;2023-04-16T09:12:46;19.90;90.50
35129;DHT22;21301;43.626;10.580;2023-04-16T09:15:12;20.00;90.60
35129;DHT22;21301;43.626;10.580;2023-04-16T09:17:39;19.90;90.10
35129;DHT22;21301;43.626;10.580;2023-04-16T09:20:06;19.80;89.40
35129;DHT22;21301;43.626;10.580;2023-04-16T09:22:36;19.90;89.80
35129;DHT22;21301;43.626;10.580;2023-04-16T09:25:02;19.60;89.00
35129;DHT22;21301;43.626;10.580;2023-04-16T09:27:29;19.70;90.10
35129;DHT22;21301;43.626;10.580;2023-04-16T09:29:55;19.90;90.00
35129;DHT22;21301;43.626;10.580;2023-04-16T09:32:25;19.80;88.10
35129;DHT22;21301;43.626;10.580;2023-04-16T09:34:56;19.50;88.40
35129;DHT22;21301;43.626;10.580;2023-04-16T09:37:23;19.70;88.90
35129;DHT22;21301;43.626;10.580;2023-04-16T09:39:56;20.00;89.80
35129;DHT22;21301;43.626;10.580;2023-04-16T09:42:27;20.30;89.60
35129;DHT22;21301;43.626;10.580;2023-04-16T09:44:53;20.20;87.60
35129;DHT22;21301;43.626;10.580;2023-04-16T09:47:20;20.20;88.50
35129;DHT22;21301;43.626;10.580;2023-04-16T09:49:46;20.20;88.50
35129;DHT22;21301;43.626;10.580;2023-04-16T09:52:17;20.30;89.10
35129;DHT22;21301;43.626;10.580;2023-04-16T09:54:51;20.60;88.70
35129;DHT22;21301;43.626;10.580;2023-04-16T09:57:21;20.80;89.50
35129;DHT22;21301;43.626;10.580;2023-04-16T09:59:51;20.60;86.50
35129;DHT22;21301;43.626;10.580;2023-04-16T10:02:17;20.40;86.80
35129;DHT22;21301;43.626;10.580;2023-04-16T10:04:51;20.40;87.70
35129;DHT22;21301;43.626;10.580;2023-04-16T10:07:18;20.60;86.20
35129;DHT22;21301;43.626;10.580;2023-04-16T10:09:45;20.50;87.60
35129;DHT22;21301;43.626;10.580;2023-04-16T10:12:11;20.80;88.10
35129;DHT22;21301;43.626;10.580;2023-04-16T10:14:37;20.80;87.20
35129;DHT22;21301;43.626;10.580;2023-04-16T10:17:03;20.60;86.30
35129;DHT22;21301;43.626;10.580;2023-04-16T10:19:31;20.70;85.70
35129;DHT22;21301;43.626;10.580;2023-04-16T10:21:58;20.70;87.20
35129;DHT22;21301;43.626;10.580;2023-04-16T10:24:24;21.00;87.40
35129;DHT22;21301;43.626;10.580;2023-04-16T10:26:51;21.20;87.90
35129;DHT22;21301;43.626;10.580;2023-04-16T10:29:19;21.30;86.90
35129;DHT22;21301;43.626;10.580;2023-04-16T10:31:46;21.10;86.70
35129;DHT22;21301;43.626;10.580;2023-04-16T10:34:12;21.30;87.70
35129;DHT22;21301;43.626;10.580;2023-04-16T10:36:38;21.40;87.80
35129;DHT22;21301;43.626;10.580;2023-04-16T10:39:09;21.20;85.60
35129;DHT22;21301;43.626;10.580;2023-04-16T10:41:36;20.80;82.70
35129;DHT22;21301;43.626;10.580;2023-04-16T10:44:07;21.00;85.10
35129;DHT22;21301;43.626;10.580;2023-04-16T10:46:41;20.90;84.30
35129;DHT22;21301;43.626;10.580;2023-04-16T10:49:18;21.00;84.00
35129;DHT22;21301;43.626;10.580;2023-04-16T10:51:57;20.90;84.40
35129;DHT22;21301;43.626;10.580;2023-04-16T10:54:28;20.90;83.80
35129;DHT22;21301;43.626;10.580;2023-04-16T10:57:05;20.80;84.30
35129;DHT22;21301;43.626;10.580;2023-04-16T10:59:37;21.10;83.70
35129;DHT22;21301;43.626;10.580;2023-04-16T11:02:17;20.80;83.60
35129;DHT22;21301;43.626;10.580;2023-04-16T11:04:47;21.00;84.10
35129;DHT22;21301;43.626;10.580;2023-04-16T11:07:21;21.10;84.60
35129;DHT22;21301;43.626;10.580;2023-04-16T11:10:00;21.50;84.50
35129;DHT22;21301;43.626;10.580;2023-04-16T11:18:09;21.40;83.80
35129;DHT22;21301;43.626;10.580;2023-04-16T11:20:23;21.60;83.80
35129;DHT22;21301;43.626;10.580;2023-04-16T11:22:52;21.80;84.50
35129;DHT22;21301;43.626;10.580;2023-04-16T11:25:19;21.50;82.80
35129;DHT22;21301;43.626;10.580;2023-04-16T11:27:45;21.40;83.30
35129;DHT22;21301;43.626;10.580;2023-04-16T11:30:11;21.70;83.70
35129;DHT22;21301;43.626;10.580;2023-04-16T11:32:38;21.40;83.70
35129;DHT22;21301;43.626;10.580;2023-04-16T11:35:12;21.40;83.90
35129;DHT22;21301;43.626;10.580;2023-04-16T11:37:38;20.70;82.50
35129;DHT22;21301;43.626;10.580;2023-04-16T11:40:05;20.60;82.40
35129;DHT22;21301;43.626;10.580;2023-04-16T11:42:33;21.00;83.10
35129;DHT22;21301;43.626;10.580;2023-04-16T11:45:02;21.50;84.30
35129;DHT22;21301;43.626;10.580;2023-04-16T11:47:29;21.30;84.10
35129;DHT22;21301;43.626;10.580;2023-04-16T11:49:55;21.10;81.30
35129;DHT22;21301;43.626;10.580;2023-04-16T11:52:30;21.10;82.10
35129;DHT22;21301;43.626;10.580;2023-04-16T11:54:56;21.00;82.40
35129;DHT22;21301;43.626;10.580;2023-04-16T11:57:26;21.20;83.10
35129;DHT22;21301;43.626;10.580;2023-04-16T11:59:52;20.90;83.00
35129;DHT22;21301;43.626;10.580;2023-04-16T12:02:36;20.80;84.30
35129;DHT22;21301;43.626;10.580;2023-04-16T12:05:29;21.30;80.80
35129;DHT22;21301;43.626;10.580;2023-04-16T12:07:53;21.20;81.90
35129;DHT22;21301;43.626;10.580;2023-04-16T12:10:19;21.30;82.00
35129;DHT22;21301;43.626;10.580;2023-04-16T12:12:45;21.40;82.00
35129;DHT22;21301;43.626;10.580;2023-04-16T12:15:11;21.50;82.40
35129;DHT22;21301;43.626;10.580;2023-04-16T12:17:37;21.40;81.70
35129;DHT22;21301;43.626;10.580;2023-04-16T12:20:07;21.20;83.00
35129;DHT22;21301;43.626;10.580;2023-04-16T12:22:35;20.40;81.40
35129;DHT22;21301;43.626;10.580;2023-04-16T12:30:11;20.40;82.40
35129;DHT22;21301;43.626;10.580;2023-04-16T12:32:39;20.70;82.10
35129;DHT22;21301;43.626;10.580;2023-04-16T12:35:05;20.80;82.40
35129;DHT22;21301;43.626;10.580;2023-04-16T12:37:31;20.60;83.10
35129;DHT22;21301;43.626;10.580;2023-04-16T12:39:57;20.40;84.20
35129;DHT22;21301;43.626;10.580;2023-04-16T12:42:22;20.60;86.40
35129;DHT22;21301;43.626;10.580;2023-04-16T12:44:48;20.50;83.20
35129;DHT22;21301;43.626;10.580;2023-04-16T12:47:14;20.50;82.70
35129;DHT22;21301;43.626;10.580;2023-04-16T12:49:40;20.40;83.00
35129;DHT22;21301;43.626;10.580;2023-04-16T12:52:06;20.60;83.70
35129;DHT22;21301;43.626;10.580;2023-04-16T12:54:32;20.30;82.80
35129;DHT22;21301;43.626;10.580;2023-04-16T12:56:58;20.30;84.20
35129;DHT22;21301;43.626;10.580;2023-04-16T12:59:24;20.30;83.40
35129;DHT22;21301;43.626;10.580;2023-04-16T13:01:49;20.10;82.70
35129;DHT22;21301;43.626;10.580;2023-04-16T13:04:15;20.40;85.00
35129;DHT22;21301;43.626;10.580;2023-04-16T13:06:43;20.40;82.90
35129;DHT22;21301;43.626;10.580;2023-04-16T13:09:10;20.40;81.10
35129;DHT22;21301;43.626;10.580;2023-04-16T13:11:36;20.40;82.50
35129;DHT22;21301;43.626;10.580;2023-04-16T13:14:02;20.70;82.10
35129;DHT22;21301;43.626;10.580;2023-04-16T13:16:27;20.60;81.90
35129;DHT22;21301;43.626;10.580;2023-04-16T13:18:53;20.70;80.00
35129;DHT22;21301;43.626;10.580;2023-04-16T13:21:19;20.40;81.60
35129;DHT22;21301;43.626;10.580;2023-04-16T13:23:45;20.40;82.10
35129;DHT22;21301;43.626;10.580;2023-04-16T13:26:11;20.50;81.90
35129;DHT22;21301;43.626;10.580;2023-04-16T13:28:39;20.90;82.70
35129;DHT22;21301;43.626;10.580;2023-04-16T13:31:06;21.10;81.30
35129;DHT22;21301;43.626;10.580;2023-04-16T13:33:31;20.70;79.10
35129;DHT22;21301;43.626;10.580;2023-04-16T13:35:57;20.80;80.70
35129;DHT22;21301;43.626;10.580;2023-04-16T13:38:23;21.00;80.80
35129;DHT22;21301;43.626;10.580;2023-04-16T13:40:49;20.80;79.40
35129;DHT22;21301;43.626;10.580;2023-04-16T13:43:15;20.60;79.30
35129;DHT22;21301;43.626;10.580;2023-04-16T13:45:44;20.60;77.70
35129;DHT22;21301;43.626;10.580;2023-04-16T13:48:11;20.70;77.50
35129;DHT22;21301;43.626;10.580;2023-04-16T13:50:39;20.60;78.50
35129;DHT22;21301;43.626;10.580;2023-04-16T13:53:05;20.50;79.00
35129;DHT22;21301;43.626;10.580;2023-04-16T13:55:34;20.60;79.80
35129;DHT22;21301;43.626;10.580;2023-04-16T13:58:00;20.70;79.50
35129;DHT22;21301;43.626;10.580;2023-04-16T14:00:26;20.80;80.30
35129;DHT22;21301;43.626;10.580;2023-04-16T14:02:52;20.60;81.40
35129;DHT22;21301;43.626;10.580;2023-04-16T14:05:18;20.40;83.30
35129;DHT22;21301;43.626;10.580;2023-04-16T14:07:44;20.70;84.70
35129;DHT22;21301;43.626;10.580;2023-04-16T14:10:10;20.70;82.20
35129;DHT22;21301;43.626;10.580;2023-04-16T14:12:37;20.70;81.80
35129;DHT22;21301;43.626;10.580;2023-04-16T14:15:05;20.30;82.60
35129;DHT22;21301;43.626;10.580;2023-04-16T14:17:31;20.20;83.00
35129;DHT22;21301;43.626;10.580;2023-04-16T14:19:57;20.10;84.50
35129;DHT22;21301;43.626;10.580;2023-04-16T14:22:23;20.10;84.30
35129;DHT22;21301;43.626;10.580;2023-04-16T14:24:49;20.30;83.70
35129;DHT22;21301;43.626;10.580;2023-04-16T14:27:15;20.50;83.20
35129;DHT22;21301;43.626;10.580;2023-04-16T14:29:41;20.60;83.10
35129;DHT22;21301;43.626;10.580;2023-04-16T14:32:08;20.80;82.90
35129;DHT22;21301;43.626;10.580;2023-04-16T14:34:34;20.60;82.00
35129;DHT22;21301;43.626;10.580;2023-04-16T14:37:00;20.60;82.20
35129;DHT22;21301;43.626;10.580;2023-04-16T14:39:25;20.40;82.30
35129;DHT22;21301;43.626;10.580;2023-04-16T14:41:51;20.50;84.30
35129;DHT22;21301;43.626;10.580;2023-04-16T14:44:17;20.50;83.40
35129;DHT22;21301;43.626;10.580;2023-04-16T14:46:43;20.50;83.60
35129;DHT22;21301;43.626;10.580;2023-04-16T14:49:09;20.60;82.60
35129;DHT22;21301;43.626;10.580;2023-04-16T14:51:35;20.50;80.90
35129;DHT22;21301;43.626;10.580;2023-04-16T14:54:01;20.70;81.80
35129;DHT22;21301;43.626;10.580;2023-04-16T14:56:29;20.80;81.50
35129;DHT22;21301;43.626;10.580;2023-04-16T14:58:56;20.80;83.10
35129;DHT22;21301;43.626;10.580;2023-04-16T15:01:22;20.80;83.70
35129;DHT22;21301;43.626;10.580;2023-04-16T15:03:48;20.70;82.10
35129;DHT22;21301;43.626;10.580;2023-04-16T15:06:14;20.60;81.70
35129;DHT22;21301;43.626;10.580;2023-04-16T15:08:41;20.60;81.40
35129;DHT22;21301;43.626;10.580;2023-04-16T15:11:06;20.70;81.90
35129;DHT22;21301;43.626;10.580;2023-04-16T15:13:32;20.40;80.70
35129;DHT22;21301;43.626;10.580;2023-04-16T15:16:02;20.40;80.80
35129;DHT22;21301;43.626;10.580;2023-04-16T15:18:31;20.40;80.00
35129;DHT22;21301;43.626;10.580;2023-04-16T15:20:57;20.40;79.30
35129;DHT22;21301;43.626;10.580;2023-04-16T15:23:23;20.20;79.10
35129;DHT22;21301;43.626;10.580;2023-04-16T15:25:49;20.20;79.70